sensor_id;sensor_type;location;lat;lon;timestamp;P1;durP1;ratioP1;P2;durP2;ratioP2
75061;SDS011;63641;46.526;24.612;2023-05-08T00:00:08;5.28;;;4.78;;
75061;SDS011;63641;46.526;24.612;2023-05-08T00:02:36;6.15;;;4.95;;
75061;SDS011;63641;46.526;24.612;2023-05-08T00:05:03;5.78;;;4.65;;
75061;SDS011;63641;46.526;24.612;2023-05-08T00:07:30;5.22;;;4.72;;
75061;SDS011;63641;46.526;24.612;2023-05-08T00:09:57;5.25;;;4.72;;
75061;SDS011;63641;46.526;24.612;2023-05-08T00:12:23;5.95;;;5.35;;
75061;SDS011;63641;46.526;24.612;2023-05-08T00:14:50;6.45;;;5.10;;
75061;SDS011;63641;46.526;24.612;2023-05-08T00:17:17;5.10;;;4.70;;
75061;SDS011;63641;46.526;24.612;2023-05-08T00:19:44;5.35;;;4.85;;
75061;SDS011;63641;46.526;24.612;2023-05-08T00:22:11;7.57;;;5.60;;
75061;SDS011;63641;46.526;24.612;2023-05-08T00:24:37;6.13;;;5.22;;
75061;SDS011;63641;46.526;24.612;2023-05-08T00:27:04;5.82;;;5.32;;
75061;SDS011;63641;46.526;24.612;2023-05-08T00:29:31;5.25;;;4.82;;
75061;SDS011;63641;46.526;24.612;2023-05-08T00:31:58;5.22;;;4.72;;
75061;SDS011;63641;46.526;24.612;2023-05-08T00:34:25;5.40;;;4.63;;
75061;SDS011;63641;46.526;24.612;2023-05-08T00:36:51;4.95;;;4.55;;
75061;SDS011;63641;46.526;24.612;2023-05-08T00:39:18;5.18;;;4.68;;
75061;SDS011;63641;46.526;24.612;2023-05-08T00:41:45;5.20;;;4.70;;
75061;SDS011;63641;46.526;24.612;2023-05-08T00:44:12;5.20;;;4.70;;
75061;SDS011;63641;46.526;24.612;2023-05-08T00:46:39;5.57;;;5.07;;
75061;SDS011;63641;46.526;24.612;2023-05-08T00:49:07;5.00;;;4.55;;
75061;SDS011;63641;46.526;24.612;2023-05-08T00:51:40;5.93;;;5.38;;
75061;SDS011;63641;46.526;24.612;2023-05-08T00:54:08;5.43;;;4.97;;
75061;SDS011;63641;46.526;24.612;2023-05-08T00:56:36;5.55;;;5.05;;
75061;SDS011;63641;46.526;24.612;2023-05-08T00:59:06;5.38;;;4.80;;
75061;SDS011;63641;46.526;24.612;2023-05-08T01:01:36;6.15;;;5.55;;
75061;SDS011;63641;46.526;24.612;2023-05-08T01:04:05;5.57;;;4.57;;
75061;SDS011;63641;46.526;24.612;2023-05-08T01:06:32;4.55;;;4.15;;
75061;SDS011;63641;46.526;24.612;2023-05-08T01:09:02;5.00;;;4.60;;
75061;SDS011;63641;46.526;24.612;2023-05-08T01:17:16;5.60;;;5.15;;
75061;SDS011;63641;46.526;24.612;2023-05-08T01:19:54;5.88;;;5.38;;
75061;SDS011;63641;46.526;24.612;2023-05-08T01:25:23;142.65;;;8.75;;
75061;SDS011;63641;46.526;24.612;2023-05-08T01:28:07;7.32;;;5.32;;
75061;SDS011;63641;46.526;24.612;2023-05-08T01:42:15;6.55;;;5.28;;
75061;SDS011;63641;46.526;24.612;2023-05-08T01:45:11;5.80;;;5.03;;
75061;SDS011;63641;46.526;24.612;2023-05-08T01:47:42;6.30;;;5.80;;
75061;SDS011;63641;46.526;24.612;2023-05-08T01:50:14;8.38;;;5.68;;
75061;SDS011;63641;46.526;24.612;2023-05-08T01:52:48;6.43;;;5.82;;
75061;SDS011;63641;46.526;24.612;2023-05-08T01:55:36;8.43;;;5.75;;
75061;SDS011;63641;46.526;24.612;2023-05-08T01:58:07;9.93;;;5.20;;
75061;SDS011;63641;46.526;24.612;2023-05-08T02:00:37;5.82;;;5.22;;
75061;SDS011;63641;46.526;24.612;2023-05-08T02:03:06;6.20;;;5.57;;
75061;SDS011;63641;46.526;24.612;2023-05-08T02:05:38;6.07;;;5.25;;
75061;SDS011;63641;46.526;24.612;2023-05-08T02:08:07;7.50;;;5.70;;
75061;SDS011;63641;46.526;24.612;2023-05-08T02:10:36;5.70;;;5.10;;
75061;SDS011;63641;46.526;24.612;2023-05-08T02:13:04;5.53;;;5.03;;
75061;SDS011;63641;46.526;24.612;2023-05-08T02:15:34;5.93;;;5.32;;
75061;SDS011;63641;46.526;24.612;2023-05-08T02:18:03;7.05;;;5.28;;
75061;SDS011;63641;46.526;24.612;2023-05-08T02:20:32;5.85;;;5.32;;
75061;SDS011;63641;46.526;24.612;2023-05-08T02:22:59;6.32;;;5.82;;
75061;SDS011;63641;46.526;24.612;2023-05-08T02:25:27;7.05;;;6.35;;
75061;SDS011;63641;46.526;24.612;2023-05-08T02:27:56;6.22;;;5.63;;
75061;SDS011;63641;46.526;24.612;2023-05-08T02:30:24;6.13;;;5.53;;
75061;SDS011;63641;46.526;24.612;2023-05-08T02:32:52;5.35;;;4.85;;
75061;SDS011;63641;46.526;24.612;2023-05-08T02:35:20;5.95;;;5.45;;
75061;SDS011;63641;46.526;24.612;2023-05-08T02:37:51;6.20;;;5.70;;
75061;SDS011;63641;46.526;24.612;2023-05-08T02:40:21;5.90;;;5.30;;
75061;SDS011;63641;46.526;24.612;2023-05-08T02:42:49;6.80;;;5.85;;
75061;SDS011;63641;46.526;24.612;2023-05-08T02:45:16;6.03;;;5.53;;
75061;SDS011;63641;46.526;24.612;2023-05-08T02:50:17;5.80;;;5.28;;
75061;SDS011;63641;46.526;24.612;2023-05-08T02:52:52;5.93;;;5.43;;
75061;SDS011;63641;46.526;24.612;2023-05-08T02:55:34;7.03;;;6.20;;
75061;SDS011;63641;46.526;24.612;2023-05-08T03:01:32;6.47;;;5.88;;
75061;SDS011;63641;46.526;24.612;2023-05-08T03:04:14;6.93;;;6.28;;
75061;SDS011;63641;46.526;24.612;2023-05-08T03:06:57;8.25;;;6.63;;
75061;SDS011;63641;46.526;24.612;2023-05-08T03:09:27;7.32;;;6.60;;
75061;SDS011;63641;46.526;24.612;2023-05-08T03:12:03;7.53;;;6.82;;
75061;SDS011;63641;46.526;24.612;2023-05-08T03:14:36;6.82;;;6.15;;
75061;SDS011;63641;46.526;24.612;2023-05-08T03:17:07;7.00;;;6.40;;
75061;SDS011;63641;46.526;24.612;2023-05-08T03:19:40;7.23;;;6.50;;
75061;SDS011;63641;46.526;24.612;2023-05-08T03:22:12;7.03;;;6.43;;
75061;SDS011;63641;46.526;24.612;2023-05-08T03:24:41;7.30;;;6.60;;
75061;SDS011;63641;46.526;24.612;2023-05-08T03:27:11;7.65;;;6.85;;
75061;SDS011;63641;46.526;24.612;2023-05-08T03:29:40;7.63;;;6.93;;
75061;SDS011;63641;46.526;24.612;2023-05-08T03:32:08;6.82;;;6.22;;
75061;SDS011;63641;46.526;24.612;2023-05-08T03:34:37;7.50;;;6.80;;
75061;SDS011;63641;46.526;24.612;2023-05-08T03:37:05;7.25;;;6.10;;
75061;SDS011;63641;46.526;24.612;2023-05-08T03:39:32;8.43;;;6.68;;
75061;SDS011;63641;46.526;24.612;2023-05-08T03:41:59;7.43;;;6.70;;
75061;SDS011;63641;46.526;24.612;2023-05-08T03:44:27;7.20;;;6.60;;
75061;SDS011;63641;46.526;24.612;2023-05-08T03:46:55;7.85;;;7.15;;
75061;SDS011;63641;46.526;24.612;2023-05-08T03:49:24;7.90;;;7.18;;
75061;SDS011;63641;46.526;24.612;2023-05-08T03:51:54;10.07;;;6.10;;
75061;SDS011;63641;46.526;24.612;2023-05-08T03:54:21;6.15;;;5.65;;
75061;SDS011;63641;46.526;24.612;2023-05-08T03:56:53;5.57;;;5.10;;
75061;SDS011;63641;46.526;24.612;2023-05-08T03:59:25;7.30;;;5.97;;
75061;SDS011;63641;46.526;24.612;2023-05-08T04:02:07;6.68;;;6.07;;
75061;SDS011;63641;46.526;24.612;2023-05-08T04:04:59;7.15;;;6.45;;
75061;SDS011;63641;46.526;24.612;2023-05-08T04:08:15;6.57;;;5.97;;
75061;SDS011;63641;46.526;24.612;2023-05-08T04:10:29;6.78;;;6.07;;
75061;SDS011;63641;46.526;24.612;2023-05-08T04:15:54;7.85;;;6.65;;
75061;SDS011;63641;46.526;24.612;2023-05-08T04:18:33;7.03;;;6.43;;
75061;SDS011;63641;46.526;24.612;2023-05-08T04:21:02;7.47;;;6.10;;
75061;SDS011;63641;46.526;24.612;2023-05-08T04:23:34;7.25;;;6.55;;
75061;SDS011;63641;46.526;24.612;2023-05-08T04:26:04;7.25;;;6.55;;
75061;SDS011;63641;46.526;24.612;2023-05-08T04:28:32;6.75;;;6.15;;
75061;SDS011;63641;46.526;24.612;2023-05-08T04:31:00;7.40;;;6.68;;
75061;SDS011;63641;46.526;24.612;2023-05-08T04:33:29;7.43;;;6.72;;
75061;SDS011;63641;46.526;24.612;2023-05-08T04:35:55;7.45;;;6.60;;
75061;SDS011;63641;46.526;24.612;2023-05-08T04:38:26;7.10;;;6.50;;
75061;SDS011;63641;46.526;24.612;2023-05-08T04:40:53;7.30;;;6.60;;
75061;SDS011;63641;46.526;24.612;2023-05-08T04:43:20;7.45;;;6.82;;
75061;SDS011;63641;46.526;24.612;2023-05-08T04:45:47;6.90;;;6.20;;
75061;SDS011;63641;46.526;24.612;2023-05-08T04:48:13;6.47;;;5.88;;
75061;SDS011;63641;46.526;24.612;2023-05-08T04:50:40;5.53;;;5.03;;
75061;SDS011;63641;46.526;24.612;2023-05-08T04:53:07;6.05;;;5.45;;
75061;SDS011;63641;46.526;24.612;2023-05-08T04:55:34;5.10;;;4.60;;
75061;SDS011;63641;46.526;24.612;2023-05-08T04:58:00;5.70;;;5.20;;
75061;SDS011;63641;46.526;24.612;2023-05-08T05:00:27;7.82;;;4.60;;
75061;SDS011;63641;46.526;24.612;2023-05-08T05:02:54;4.40;;;4.00;;
75061;SDS011;63641;46.526;24.612;2023-05-08T05:05:21;4.78;;;4.32;;
75061;SDS011;63641;46.526;24.612;2023-05-08T05:07:47;4.80;;;4.22;;
75061;SDS011;63641;46.526;24.612;2023-05-08T05:10:14;4.07;;;3.72;;
75061;SDS011;63641;46.526;24.612;2023-05-08T05:12:41;3.95;;;3.40;;
75061;SDS011;63641;46.526;24.612;2023-05-08T05:15:08;4.53;;;3.90;;
75061;SDS011;63641;46.526;24.612;2023-05-08T05:17:35;4.32;;;4.00;;
75061;SDS011;63641;46.526;24.612;2023-05-08T05:20:02;4.80;;;4.30;;
75061;SDS011;63641;46.526;24.612;2023-05-08T05:22:31;4.43;;;4.03;;
75061;SDS011;63641;46.526;24.612;2023-05-08T05:24:58;4.63;;;4.22;;
75061;SDS011;63641;46.526;24.612;2023-05-08T05:27:25;4.50;;;4.10;;
75061;SDS011;63641;46.526;24.612;2023-05-08T05:29:51;5.50;;;4.50;;
75061;SDS011;63641;46.526;24.612;2023-05-08T05:32:18;4.32;;;3.92;;
75061;SDS011;63641;46.526;24.612;2023-05-08T05:34:45;5.03;;;3.97;;
75061;SDS011;63641;46.526;24.612;2023-05-08T05:37:12;3.85;;;3.55;;
75061;SDS011;63641;46.526;24.612;2023-05-08T05:39:39;4.30;;;3.90;;
75061;SDS011;63641;46.526;24.612;2023-05-08T05:42:06;4.38;;;3.97;;
75061;SDS011;63641;46.526;24.612;2023-05-08T05:44:32;5.20;;;4.20;;
75061;SDS011;63641;46.526;24.612;2023-05-08T05:46:59;6.30;;;3.63;;
75061;SDS011;63641;46.526;24.612;2023-05-08T05:49:25;3.97;;;3.67;;
75061;SDS011;63641;46.526;24.612;2023-05-08T05:51:53;6.32;;;4.32;;
75061;SDS011;63641;46.526;24.612;2023-05-08T05:54:19;4.47;;;4.07;;
75061;SDS011;63641;46.526;24.612;2023-05-08T05:56:46;4.28;;;3.92;;
75061;SDS011;63641;46.526;24.612;2023-05-08T05:59:13;4.38;;;3.97;;
75061;SDS011;63641;46.526;24.612;2023-05-08T06:01:40;5.88;;;4.05;;
75061;SDS011;63641;46.526;24.612;2023-05-08T06:04:07;3.92;;;3.63;;
75061;SDS011;63641;46.526;24.612;2023-05-08T06:06:34;3.80;;;3.50;;
75061;SDS011;63641;46.526;24.612;2023-05-08T06:09:00;4.13;;;3.72;;
75061;SDS011;63641;46.526;24.612;2023-05-08T06:11:27;4.05;;;3.65;;
75061;SDS011;63641;46.526;24.612;2023-05-08T06:13:54;3.75;;;3.45;;
75061;SDS011;63641;46.526;24.612;2023-05-08T06:16:20;4.22;;;3.83;;
75061;SDS011;63641;46.526;24.612;2023-05-08T06:18:50;3.80;;;3.50;;
75061;SDS011;63641;46.526;24.612;2023-05-08T06:21:17;3.83;;;3.42;;
75061;SDS011;63641;46.526;24.612;2023-05-08T06:23:44;4.32;;;3.92;;
75061;SDS011;63641;46.526;24.612;2023-05-08T06:26:11;4.18;;;3.78;;
75061;SDS011;63641;46.526;24.612;2023-05-08T06:28:38;3.55;;;3.25;;
75061;SDS011;63641;46.526;24.612;2023-05-08T06:31:04;4.18;;;3.67;;
75061;SDS011;63641;46.526;24.612;2023-05-08T06:33:31;5.90;;;3.92;;
75061;SDS011;63641;46.526;24.612;2023-05-08T06:35:58;4.00;;;3.60;;
75061;SDS011;63641;46.526;24.612;2023-05-08T06:38:25;4.47;;;3.75;;
75061;SDS011;63641;46.526;24.612;2023-05-08T06:40:52;4.45;;;4.05;;
75061;SDS011;63641;46.526;24.612;2023-05-08T06:43:19;4.43;;;4.03;;
75061;SDS011;63641;46.526;24.612;2023-05-08T06:45:50;5.05;;;3.83;;
75061;SDS011;63641;46.526;24.612;2023-05-08T06:48:18;4.03;;;3.63;;
75061;SDS011;63641;46.526;24.612;2023-05-08T06:50:46;4.70;;;3.80;;
75061;SDS011;63641;46.526;24.612;2023-05-08T06:53:13;4.20;;;3.33;;
75061;SDS011;63641;46.526;24.612;2023-05-08T06:55:41;3.85;;;3.55;;
75061;SDS011;63641;46.526;24.612;2023-05-08T06:58:10;3.80;;;3.50;;
75061;SDS011;63641;46.526;24.612;2023-05-08T07:00:37;4.55;;;4.15;;
75061;SDS011;63641;46.526;24.612;2023-05-08T07:03:03;5.47;;;3.70;;
75061;SDS011;63641;46.526;24.612;2023-05-08T07:05:30;4.65;;;3.72;;
75061;SDS011;63641;46.526;24.612;2023-05-08T07:07:57;5.05;;;3.63;;
75061;SDS011;63641;46.526;24.612;2023-05-08T07:10:23;3.60;;;3.30;;
75061;SDS011;63641;46.526;24.612;2023-05-08T07:12:50;4.32;;;3.70;;
75061;SDS011;63641;46.526;24.612;2023-05-08T07:15:17;3.67;;;3.38;;
75061;SDS011;63641;46.526;24.612;2023-05-08T07:17:51;4.57;;;4.18;;
75061;SDS011;63641;46.526;24.612;2023-05-08T07:20:18;3.83;;;3.40;;
75061;SDS011;63641;46.526;24.612;2023-05-08T07:22:45;4.35;;;3.75;;
75061;SDS011;63641;46.526;24.612;2023-05-08T07:25:12;4.10;;;3.70;;
75061;SDS011;63641;46.526;24.612;2023-05-08T07:27:39;3.92;;;3.53;;
75061;SDS011;63641;46.526;24.612;2023-05-08T07:30:06;5.47;;;3.55;;
75061;SDS011;63641;46.526;24.612;2023-05-08T07:32:34;3.90;;;3.45;;
75061;SDS011;63641;46.526;24.612;2023-05-08T07:35:01;4.40;;;3.47;;
75061;SDS011;63641;46.526;24.612;2023-05-08T07:37:28;3.85;;;2.75;;
75061;SDS011;63641;46.526;24.612;2023-05-08T07:39:55;3.65;;;3.35;;
75061;SDS011;63641;46.526;24.612;2023-05-08T07:42:22;3.63;;;3.25;;
75061;SDS011;63641;46.526;24.612;2023-05-08T07:44:48;3.65;;;3.35;;
75061;SDS011;63641;46.526;24.612;2023-05-08T07:47:20;4.15;;;3.63;;
75061;SDS011;63641;46.526;24.612;2023-05-08T07:49:47;3.97;;;3.53;;
75061;SDS011;63641;46.526;24.612;2023-05-08T07:52:14;3.97;;;2.95;;
75061;SDS011;63641;46.526;24.612;2023-05-08T07:54:41;3.70;;;3.28;;
75061;SDS011;63641;46.526;24.612;2023-05-08T07:57:09;7.72;;;3.00;;
75061;SDS011;63641;46.526;24.612;2023-05-08T07:59:36;3.10;;;2.90;;
75061;SDS011;63641;46.526;24.612;2023-05-08T08:02:03;3.53;;;3.22;;
75061;SDS011;63641;46.526;24.612;2023-05-08T08:04:30;3.13;;;2.85;;
75061;SDS011;63641;46.526;24.612;2023-05-08T08:06:57;3.80;;;2.50;;
75061;SDS011;63641;46.526;24.612;2023-05-08T08:09:23;2.53;;;2.33;;
75061;SDS011;63641;46.526;24.612;2023-05-08T08:11:51;2.50;;;2.30;;
75061;SDS011;63641;46.526;24.612;2023-05-08T08:14:17;3.17;;;2.15;;
75061;SDS011;63641;46.526;24.612;2023-05-08T08:16:44;2.40;;;2.20;;
75061;SDS011;63641;46.526;24.612;2023-05-08T08:19:11;2.10;;;1.90;;
75061;SDS011;63641;46.526;24.612;2023-05-08T08:21:41;2.33;;;2.08;;
75061;SDS011;63641;46.526;24.612;2023-05-08T08:24:08;2.05;;;1.85;;
75061;SDS011;63641;46.526;24.612;2023-05-08T08:26:35;1.95;;;1.85;;
75061;SDS011;63641;46.526;24.612;2023-05-08T08:29:02;2.35;;;1.90;;
75061;SDS011;63641;46.526;24.612;2023-05-08T08:31:29;2.13;;;1.92;;
75061;SDS011;63641;46.526;24.612;2023-05-08T08:33:56;3.53;;;1.50;;
75061;SDS011;63641;46.526;24.612;2023-05-08T08:36:23;1.58;;;1.40;;
75061;SDS011;63641;46.526;24.612;2023-05-08T08:38:50;1.25;;;1.20;;
75061;SDS011;63641;46.526;24.612;2023-05-08T08:41:17;1.40;;;1.23;;
75061;SDS011;63641;46.526;24.612;2023-05-08T08:43:44;1.20;;;1.20;;
75061;SDS011;63641;46.526;24.612;2023-05-08T08:46:11;1.33;;;1.23;;
75061;SDS011;63641;46.526;24.612;2023-05-08T08:48:44;3.08;;;1.42;;
75061;SDS011;63641;46.526;24.612;2023-05-08T08:51:25;1.20;;;1.10;;
75061;SDS011;63641;46.526;24.612;2023-05-08T08:53:59;2.08;;;1.33;;
75061;SDS011;63641;46.526;24.612;2023-05-08T08:56:38;1.23;;;1.13;;
75061;SDS011;63641;46.526;24.612;2023-05-08T08:59:12;0.95;;;0.95;;
75061;SDS011;63641;46.526;24.612;2023-05-08T09:01:43;1.30;;;1.20;;
75061;SDS011;63641;46.526;24.612;2023-05-08T09:04:13;1.17;;;1.10;;
75061;SDS011;63641;46.526;24.612;2023-05-08T09:06:41;1.00;;;1.00;;
75061;SDS011;63641;46.526;24.612;2023-05-08T09:09:08;1.30;;;0.90;;
75061;SDS011;63641;46.526;24.612;2023-05-08T09:11:38;3.45;;;1.00;;
75061;SDS011;63641;46.526;24.612;2023-05-08T09:14:06;0.90;;;0.90;;
75061;SDS011;63641;46.526;24.612;2023-05-08T09:16:33;0.90;;;0.90;;
75061;SDS011;63641;46.526;24.612;2023-05-08T09:19:01;0.90;;;0.90;;
75061;SDS011;63641;46.526;24.612;2023-05-08T09:21:29;0.90;;;0.90;;
75061;SDS011;63641;46.526;24.612;2023-05-08T09:23:58;1.00;;;0.90;;
75061;SDS011;63641;46.526;24.612;2023-05-08T09:26:33;2.55;;;1.10;;
75061;SDS011;63641;46.526;24.612;2023-05-08T09:31:39;1.25;;;1.00;;
75061;SDS011;63641;46.526;24.612;2023-05-08T09:34:08;0.90;;;0.90;;
75061;SDS011;63641;46.526;24.612;2023-05-08T09:36:49;1.17;;;1.10;;
75061;SDS011;63641;46.526;24.612;2023-05-08T09:39:20;1.08;;;0.98;;
75061;SDS011;63641;46.526;24.612;2023-05-08T09:44:26;0.82;;;0.80;;
75061;SDS011;63641;46.526;24.612;2023-05-08T09:49:56;0.70;;;0.70;;
75061;SDS011;63641;46.526;24.612;2023-05-08T09:52:26;1.08;;;0.90;;
75061;SDS011;63641;46.526;24.612;2023-05-08T09:55:08;0.68;;;0.68;;
75061;SDS011;63641;46.526;24.612;2023-05-08T09:57:36;1.75;;;0.60;;
75061;SDS011;63641;46.526;24.612;2023-05-08T10:00:11;0.80;;;0.80;;
75061;SDS011;63641;46.526;24.612;2023-05-08T10:02:40;0.80;;;0.80;;
75061;SDS011;63641;46.526;24.612;2023-05-08T10:05:23;2.05;;;0.73;;
75061;SDS011;63641;46.526;24.612;2023-05-08T10:07:50;0.60;;;0.60;;
75061;SDS011;63641;46.526;24.612;2023-05-08T10:10:21;0.70;;;0.70;;
75061;SDS011;63641;46.526;24.612;2023-05-08T10:12:52;1.75;;;0.70;;
75061;SDS011;63641;46.526;24.612;2023-05-08T10:15:40;0.80;;;0.60;;
75061;SDS011;63641;46.526;24.612;2023-05-08T10:18:08;0.73;;;0.73;;
75061;SDS011;63641;46.526;24.612;2023-05-08T10:20:42;0.88;;;0.73;;
75061;SDS011;63641;46.526;24.612;2023-05-08T10:23:13;0.80;;;0.80;;
75061;SDS011;63641;46.526;24.612;2023-05-08T10:25:46;0.70;;;0.70;;
75061;SDS011;63641;46.526;24.612;2023-05-08T10:28:27;1.10;;;1.05;;
75061;SDS011;63641;46.526;24.612;2023-05-08T10:31:02;0.90;;;0.70;;
75061;SDS011;63641;46.526;24.612;2023-05-08T10:33:30;0.90;;;0.80;;
75061;SDS011;63641;46.526;24.612;2023-05-08T10:36:00;0.88;;;0.70;;
75061;SDS011;63641;46.526;24.612;2023-05-08T10:38:27;0.95;;;0.70;;
75061;SDS011;63641;46.526;24.612;2023-05-08T10:40:58;0.50;;;0.50;;
75061;SDS011;63641;46.526;24.612;2023-05-08T10:43:27;0.57;;;0.57;;
75061;SDS011;63641;46.526;24.612;2023-05-08T10:45:55;0.85;;;0.68;;
75061;SDS011;63641;46.526;24.612;2023-05-08T10:48:47;0.60;;;0.60;;
75061;SDS011;63641;46.526;24.612;2023-05-08T10:51:31;14.75;;;0.90;;
75061;SDS011;63641;46.526;24.612;2023-05-08T10:57:11;0.95;;;0.60;;
75061;SDS011;63641;46.526;24.612;2023-05-08T10:59:38;0.73;;;0.73;;
75061;SDS011;63641;46.526;24.612;2023-05-08T11:02:12;0.70;;;0.70;;
75061;SDS011;63641;46.526;24.612;2023-05-08T11:04:39;0.60;;;0.60;;
75061;SDS011;63641;46.526;24.612;2023-05-08T11:07:06;0.70;;;0.65;;
75061;SDS011;63641;46.526;24.612;2023-05-08T11:12:06;1.00;;;0.68;;
75061;SDS011;63641;46.526;24.612;2023-05-08T11:14:41;0.68;;;0.65;;
75061;SDS011;63641;46.526;24.612;2023-05-08T11:17:24;0.70;;;0.70;;
75061;SDS011;63641;46.526;24.612;2023-05-08T11:19:55;3.10;;;0.60;;
75061;SDS011;63641;46.526;24.612;2023-05-08T11:22:27;1.70;;;0.60;;
75061;SDS011;63641;46.526;24.612;2023-05-08T11:27:35;0.70;;;0.70;;
75061;SDS011;63641;46.526;24.612;2023-05-08T11:30:23;1.05;;;0.68;;
75061;SDS011;63641;46.526;24.612;2023-05-08T11:39:03;1.30;;;0.65;;
75061;SDS011;63641;46.526;24.612;2023-05-08T11:43:57;1.23;;;0.60;;
75061;SDS011;63641;46.526;24.612;2023-05-08T11:46:40;0.50;;;0.50;;
75061;SDS011;63641;46.526;24.612;2023-05-08T11:49:21;1.33;;;0.70;;
75061;SDS011;63641;46.526;24.612;2023-05-08T11:51:56;0.60;;;0.60;;
75061;SDS011;63641;46.526;24.612;2023-05-08T11:54:24;2.05;;;0.60;;
75061;SDS011;63641;46.526;24.612;2023-05-08T11:56:55;0.60;;;0.60;;
75061;SDS011;63641;46.526;24.612;2023-05-08T11:59:23;0.60;;;0.60;;
75061;SDS011;63641;46.526;24.612;2023-05-08T12:01:50;0.60;;;0.60;;
75061;SDS011;63641;46.526;24.612;2023-05-08T12:04:20;0.60;;;0.60;;
75061;SDS011;63641;46.526;24.612;2023-05-08T12:06:47;0.75;;;0.60;;
75061;SDS011;63641;46.526;24.612;2023-05-08T12:09:17;0.55;;;0.55;;
75061;SDS011;63641;46.526;24.612;2023-05-08T12:11:44;0.90;;;0.80;;
75061;SDS011;63641;46.526;24.612;2023-05-08T12:14:11;0.90;;;0.90;;
75061;SDS011;63641;46.526;24.612;2023-05-08T12:16:40;0.85;;;0.60;;
75061;SDS011;63641;46.526;24.612;2023-05-08T12:19:10;0.60;;;0.60;;
75061;SDS011;63641;46.526;24.612;2023-05-08T12:21:44;0.60;;;0.60;;
75061;SDS011;63641;46.526;24.612;2023-05-08T12:24:14;0.75;;;0.70;;
75061;SDS011;63641;46.526;24.612;2023-05-08T12:26:48;1.30;;;0.70;;
75061;SDS011;63641;46.526;24.612;2023-05-08T12:29:19;0.60;;;0.60;;
75061;SDS011;63641;46.526;24.612;2023-05-08T12:31:46;0.88;;;0.60;;
75061;SDS011;63641;46.526;24.612;2023-05-08T12:34:14;0.60;;;0.60;;
75061;SDS011;63641;46.526;24.612;2023-05-08T12:36:41;0.50;;;0.50;;
75061;SDS011;63641;46.526;24.612;2023-05-08T12:39:12;0.70;;;0.70;;
75061;SDS011;63641;46.526;24.612;2023-05-08T12:41:47;0.60;;;0.60;;
75061;SDS011;63641;46.526;24.612;2023-05-08T12:44:24;0.50;;;0.50;;
75061;SDS011;63641;46.526;24.612;2023-05-08T12:46:55;0.70;;;0.65;;
75061;SDS011;63641;46.526;24.612;2023-05-08T12:49:27;1.10;;;0.65;;
75061;SDS011;63641;46.526;24.612;2023-05-08T12:51:59;0.57;;;0.57;;
75061;SDS011;63641;46.526;24.612;2023-05-08T12:54:30;0.60;;;0.60;;
75061;SDS011;63641;46.526;24.612;2023-05-08T12:56:58;0.60;;;0.60;;
75061;SDS011;63641;46.526;24.612;2023-05-08T12:59:31;1.30;;;0.68;;
75061;SDS011;63641;46.526;24.612;2023-05-08T13:01:58;1.40;;;0.60;;
75061;SDS011;63641;46.526;24.612;2023-05-08T13:04:25;0.70;;;0.70;;
75061;SDS011;63641;46.526;24.612;2023-05-08T13:06:53;0.60;;;0.60;;
75061;SDS011;63641;46.526;24.612;2023-05-08T13:09:20;0.70;;;0.70;;
75061;SDS011;63641;46.526;24.612;2023-05-08T13:11:55;1.15;;;0.70;;
75061;SDS011;63641;46.526;24.612;2023-05-08T13:14:22;1.05;;;0.70;;
75061;SDS011;63641;46.526;24.612;2023-05-08T13:16:49;1.05;;;0.95;;
75061;SDS011;63641;46.526;24.612;2023-05-08T13:19:17;0.70;;;0.65;;
75061;SDS011;63641;46.526;24.612;2023-05-08T13:21:44;0.60;;;0.60;;
75061;SDS011;63641;46.526;24.612;2023-05-08T13:24:13;1.15;;;0.82;;
75061;SDS011;63641;46.526;24.612;2023-05-08T13:26:40;1.55;;;0.60;;
75061;SDS011;63641;46.526;24.612;2023-05-08T13:29:07;5.20;;;1.15;;
75061;SDS011;63641;46.526;24.612;2023-05-08T13:31:34;1.08;;;1.00;;
75061;SDS011;63641;46.526;24.612;2023-05-08T13:34:01;0.90;;;0.73;;
75061;SDS011;63641;46.526;24.612;2023-05-08T13:36:28;1.20;;;1.10;;
75061;SDS011;63641;46.526;24.612;2023-05-08T13:38:55;1.13;;;1.02;;
75061;SDS011;63641;46.526;24.612;2023-05-08T13:41:22;1.95;;;0.80;;
75061;SDS011;63641;46.526;24.612;2023-05-08T13:43:49;0.70;;;0.70;;
75061;SDS011;63641;46.526;24.612;2023-05-08T13:46:16;1.08;;;0.70;;
75061;SDS011;63641;46.526;24.612;2023-05-08T13:48:43;0.95;;;0.65;;
75061;SDS011;63641;46.526;24.612;2023-05-08T13:51:10;1.17;;;0.90;;
75061;SDS011;63641;46.526;24.612;2023-05-08T13:53:36;0.70;;;0.70;;
75061;SDS011;63641;46.526;24.612;2023-05-08T13:56:03;0.60;;;0.60;;
75061;SDS011;63641;46.526;24.612;2023-05-08T13:58:30;1.42;;;0.90;;
75061;SDS011;63641;46.526;24.612;2023-05-08T14:00:57;1.02;;;0.95;;
75061;SDS011;63641;46.526;24.612;2023-05-08T14:03:30;1.13;;;1.00;;
75061;SDS011;63641;46.526;24.612;2023-05-08T14:05:57;0.70;;;0.70;;
75061;SDS011;63641;46.526;24.612;2023-05-08T14:08:24;0.98;;;0.80;;
75061;SDS011;63641;46.526;24.612;2023-05-08T14:10:50;1.00;;;0.82;;
75061;SDS011;63641;46.526;24.612;2023-05-08T14:13:18;1.48;;;1.10;;
75061;SDS011;63641;46.526;24.612;2023-05-08T14:15:44;3.65;;;1.13;;
75061;SDS011;63641;46.526;24.612;2023-05-08T14:18:11;1.10;;;1.00;;
75061;SDS011;63641;46.526;24.612;2023-05-08T14:20:39;1.20;;;1.10;;
75061;SDS011;63641;46.526;24.612;2023-05-08T14:23:05;2.33;;;1.10;;
75061;SDS011;63641;46.526;24.612;2023-05-08T14:25:32;2.15;;;0.90;;
75061;SDS011;63641;46.526;24.612;2023-05-08T14:27:59;0.80;;;0.80;;
75061;SDS011;63641;46.526;24.612;2023-05-08T14:30:25;0.80;;;0.80;;
75061;SDS011;63641;46.526;24.612;2023-05-08T14:32:52;1.30;;;1.20;;
75061;SDS011;63641;46.526;24.612;2023-05-08T14:35:19;1.38;;;1.25;;
75061;SDS011;63641;46.526;24.612;2023-05-08T14:37:46;1.15;;;1.00;;
75061;SDS011;63641;46.526;24.612;2023-05-08T14:40:13;0.80;;;0.80;;
75061;SDS011;63641;46.526;24.612;2023-05-08T14:42:39;0.80;;;0.80;;
75061;SDS011;63641;46.526;24.612;2023-05-08T14:45:07;0.98;;;0.80;;
75061;SDS011;63641;46.526;24.612;2023-05-08T14:47:34;2.22;;;1.25;;
75061;SDS011;63641;46.526;24.612;2023-05-08T14:50:01;1.00;;;1.00;;
75061;SDS011;63641;46.526;24.612;2023-05-08T14:52:28;1.15;;;0.85;;
75061;SDS011;63641;46.526;24.612;2023-05-08T14:54:54;0.70;;;0.70;;
75061;SDS011;63641;46.526;24.612;2023-05-08T14:57:21;2.03;;;0.90;;
75061;SDS011;63641;46.526;24.612;2023-05-08T14:59:48;3.35;;;0.90;;
75061;SDS011;63641;46.526;24.612;2023-05-08T15:02:35;1.65;;;1.15;;
75061;SDS011;63641;46.526;24.612;2023-05-08T15:05:02;2.38;;;0.95;;
75061;SDS011;63641;46.526;24.612;2023-05-08T15:10:06;1.23;;;1.00;;
75061;SDS011;63641;46.526;24.612;2023-05-08T15:12:33;1.10;;;1.02;;
75061;SDS011;63641;46.526;24.612;2023-05-08T15:15:00;1.63;;;1.10;;
75061;SDS011;63641;46.526;24.612;2023-05-08T15:17:29;1.00;;;1.00;;
75061;SDS011;63641;46.526;24.612;2023-05-08T15:19:56;2.50;;;1.20;;
75061;SDS011;63641;46.526;24.612;2023-05-08T15:22:23;3.70;;;1.00;;
75061;SDS011;63641;46.526;24.612;2023-05-08T15:24:52;1.10;;;1.00;;
75061;SDS011;63641;46.526;24.612;2023-05-08T15:27:19;1.42;;;1.10;;
75061;SDS011;63641;46.526;24.612;2023-05-08T15:29:45;1.25;;;1.15;;
75061;SDS011;63641;46.526;24.612;2023-05-08T15:32:15;1.77;;;1.38;;
75061;SDS011;63641;46.526;24.612;2023-05-08T15:34:41;1.20;;;1.10;;
75061;SDS011;63641;46.526;24.612;2023-05-08T15:37:08;1.20;;;1.10;;
75061;SDS011;63641;46.526;24.612;2023-05-08T15:39:35;1.25;;;1.10;;
75061;SDS011;63641;46.526;24.612;2023-05-08T15:42:02;1.50;;;1.40;;